Time;durP1;ratioP1;P1;durP2;ratioP2;P2;SDS_P1;SDS_P2;PMS_P1;PMS_P2;Temp;Humidity;BMP_temperature;BMP_pressure;BME280_temperature;BME280_humidity;BME280_pressure;Samples;Min_cycle;Max_cycle;Signal;HPM_P1;HPM_P2
2022/03/13 00:01:11;;;;;;;4.88;0.80;;;7.80;99.90;;;;;;5063729;28;20035;-76
2022/03/13 00:03:38;;;;;;;7.35;1.35;;;7.90;99.90;;;;;;5064008;28;20021;-76
2022/03/13 00:06:03;;;;;;;7.55;1.27;;;7.90;99.90;;;;;;5065126;28;20033;-74
2022/03/13 00:08:32;;;;;;;7.93;0.90;;;8.00;99.90;;;;;;5064948;28;20085;-75
2022/03/13 00:11:01;;;;;;;8.27;1.10;;;8.00;99.90;;;;;;5047199;28;20336;-75
2022/03/13 00:13:34;;;;;;;7.32;1.02;;;8.10;99.90;;;;;;5063599;28;20028;-76
2022/03/13 00:16:03;;;;;;;5.47;1.15;;;8.20;99.90;;;;;;5064927;28;20067;-74
2022/03/13 00:18:31;;;;;;;10.65;2.17;;;8.30;99.90;;;;;;5080537;28;20029;-76
2022/03/13 00:21:03;;;;;;;4.47;1.30;;;8.30;99.90;;;;;;5064790;28;20013;-76
2022/03/13 00:23:31;;;;;;;9.65;1.45;;;8.40;99.90;;;;;;5063314;28;20032;-76
2022/03/13 00:25:57;;;;;;;5.00;1.10;;;8.40;99.90;;;;;;5063689;28;20248;-77
2022/03/13 00:28:23;;;;;;;6.18;1.33;;;8.50;99.90;;;;;;5062985;28;20020;-76
2022/03/13 00:30:48;;;;;;;6.47;1.10;;;8.50;99.90;;;;;;5064034;28;20040;-76
2022/03/13 00:33:14;;;;;;;10.23;1.40;;;8.50;99.90;;;;;;5064709;28;20021;-75
2022/03/13 00:35:40;;;;;;;10.77;1.60;;;8.60;99.90;;;;;;5064619;28;20052;-74
2022/03/13 00:38:06;;;;;;;10.18;1.70;;;8.60;99.90;;;;;;5063121;28;20021;-75
2022/03/13 00:40:33;;;;;;;16.75;1.85;;;8.60;99.90;;;;;;5064158;28;20025;-76
2022/03/13 00:43:00;;;;;;;13.05;1.80;;;8.70;99.90;;;;;;5063153;28;20029;-76
2022/03/13 00:45:26;;;;;;;10.95;1.75;;;8.70;99.90;;;;;;5046597;28;20020;-76
2022/03/13 00:47:52;;;;;;;10.32;1.73;;;8.70;99.90;;;;;;5063213;28;20073;-76
2022/03/13 00:50:18;;;;;;;10.95;1.92;;;8.70;99.90;;;;;;5063907;28;20282;-77
2022/03/13 00:52:44;;;;;;;13.10;2.10;;;8.80;99.90;;;;;;5062377;28;20021;-75
2022/03/13 00:55:10;;;;;;;9.75;1.55;;;8.80;99.90;;;;;;5046219;28;20271;-75
2022/03/13 00:57:36;;;;;;;12.90;1.67;;;8.80;99.90;;;;;;5063856;28;20208;-75
2022/03/13 01:00:04;;;;;;;7.90;1.50;;;8.80;99.90;;;;;;5029741;28;20100;-76
2022/03/13 01:02:29;;;;;;;8.40;1.70;;;8.80;99.90;;;;;;5046141;28;20039;-77
2022/03/13 01:04:55;;;;;;;14.52;1.35;;;8.80;99.90;;;;;;5046084;28;20308;-76
2022/03/13 01:07:21;;;;;;;12.75;2.00;;;8.80;99.90;;;;;;5046018;28;20017;-77
2022/03/13 01:09:46;;;;;;;14.68;1.80;;;8.80;99.90;;;;;;5045998;28;20036;-76
2022/03/13 01:12:12;;;;;;;6.18;1.50;;;8.80;99.90;;;;;;5062447;28;20080;-76
2022/03/13 01:14:38;;;;;;;8.85;1.70;;;8.90;99.90;;;;;;5063619;28;20326;-75
2022/03/13 01:17:05;;;;;;;11.77;2.00;;;8.80;99.90;;;;;;5079498;28;20020;-77
2022/03/13 01:19:31;;;;;;;17.23;2.00;;;8.90;99.90;;;;;;5062639;28;20049;-75
2022/03/13 01:21:57;;;;;;;10.90;1.55;;;8.90;99.90;;;;;;5062382;28;20021;-75
2022/03/13 01:24:28;;;;;;;10.85;1.92;;;8.90;99.90;;;;;;5062436;28;20020;-75
2022/03/13 01:27:01;;;;;;;15.20;2.20;;;9.00;99.90;;;;;;5063794;28;20080;-75
2022/03/13 01:29:26;;;;;;;15.13;2.22;;;9.00;99.90;;;;;;5060352;28;20108;-76
2022/03/13 01:31:52;;;;;;;16.55;2.40;;;9.00;99.90;;;;;;5061651;28;20028;-75
2022/03/13 01:34:38;;;;;;;9.77;1.63;;;9.00;99.90;;;;;;5061994;28;20021;-75
2022/03/13 01:37:06;;;;;;;12.38;2.05;;;9.00;99.90;;;;;;5058458;28;20296;-75
2022/03/13 01:39:32;;;;;;;6.47;1.50;;;9.00;99.90;;;;;;5058818;28;20079;-74
2022/03/13 01:41:58;;;;;;;8.52;1.55;;;9.00;99.90;;;;;;5058796;28;20227;-76
2022/03/13 01:44:26;;;;;;;11.50;2.10;;;9.00;99.90;;;;;;5042342;28;20021;-75
2022/03/13 01:46:53;;;;;;;10.32;2.17;;;9.00;99.90;;;;;;5058834;28;20029;-75
2022/03/13 01:49:18;;;;;;;10.55;1.90;;;9.00;99.90;;;;;;5058427;28;20064;-75
2022/03/13 01:51:44;;;;;;;10.88;1.95;;;9.00;99.90;;;;;;5041938;28;20025;-75
2022/03/13 01:54:12;;;;;;;12.05;2.22;;;9.10;99.90;;;;;;5043649;28;20029;-74
2022/03/13 01:56:39;;;;;;;11.02;2.03;;;9.00;99.90;;;;;;5058784;28;20029;-74
2022/03/13 01:59:06;;;;;;;12.82;3.13;;;9.10;99.90;;;;;;5058988;28;20029;-74
2022/03/13 02:01:33;;;;;;;17.27;2.25;;;9.10;99.90;;;;;;5057834;28;20075;-74
2022/03/13 02:03:58;;;;;;;9.77;2.28;;;9.10;99.90;;;;;;5058886;28;20028;-76
2022/03/13 02:06:25;;;;;;;12.35;2.60;;;9.00;99.90;;;;;;5043331;28;20017;-74
2022/03/13 02:08:51;;;;;;;7.38;1.70;;;9.00;99.90;;;;;;5042083;28;20025;-74
2022/03/13 02:11:19;;;;;;;6.68;2.00;;;9.00;99.90;;;;;;5043118;28;20220;-75
2022/03/13 02:13:48;;;;;;;10.43;2.10;;;9.00;99.90;;;;;;5058915;28;20041;-75
2022/03/13 02:16:15;;;;;;;13.70;2.20;;;8.90;99.90;;;;;;5025841;28;20049;-74
2022/03/13 02:18:46;;;;;;;9.65;1.63;;;8.90;99.90;;;;;;5009134;28;20029;-75
2022/03/13 02:21:12;;;;;;;8.50;1.50;;;8.90;99.90;;;;;;5041899;28;20177;-74
2022/03/13 02:23:38;;;;;;;7.15;2.47;;;8.90;99.90;;;;;;5043203;28;20064;-75
2022/03/13 02:26:05;;;;;;;9.10;1.70;;;8.90;99.90;;;;;;5043339;28;20293;-74
2022/03/13 02:28:34;;;;;;;8.10;1.98;;;8.90;99.90;;;;;;5045194;28;20017;-75
2022/03/13 02:31:04;;;;;;;11.90;1.73;;;8.90;99.90;;;;;;5044549;28;20312;-75
2022/03/13 02:33:30;;;;;;;12.15;2.08;;;8.90;99.90;;;;;;5013377;28;20092;-76
2022/03/13 02:35:59;;;;;;;7.15;1.77;;;8.90;99.90;;;;;;5029178;28;20017;-74
2022/03/13 02:38:27;;;;;;;12.13;2.03;;;8.90;99.90;;;;;;5061561;28;20135;-76
2022/03/13 02:40:54;;;;;;;10.15;1.83;;;9.00;99.90;;;;;;5066809;28;20032;-75
2022/03/13 02:43:20;;;;;;;6.50;1.85;;;9.00;99.90;;;;;;5065387;28;20021;-76
2022/03/13 02:45:46;;;;;;;7.65;2.35;;;9.00;99.90;;;;;;5065606;28;20021;-75
2022/03/13 02:48:12;;;;;;;8.35;2.05;;;9.10;99.90;;;;;;5048837;28;20242;-76
2022/03/13 02:50:39;;;;;;;10.90;2.22;;;9.00;99.90;;;;;;5081863;28;20100;-75
2022/03/13 02:53:06;;;;;;;10.73;2.05;;;9.00;99.90;;;;;;5065172;28;20054;-75
2022/03/13 02:55:32;;;;;;;10.85;2.28;;;9.00;99.90;;;;;;5049016;28;20185;-75
2022/03/13 02:57:58;;;;;;;10.48;2.05;;;9.00;99.90;;;;;;5048622;28;20214;-76
2022/03/13 03:00:45;;;;;;;8.90;2.40;;;9.10;99.90;;;;;;5066236;28;20334;-76
2022/03/13 03:03:14;;;;;;;9.55;1.83;;;9.00;99.90;;;;;;5050621;28;20013;-75
2022/03/13 03:05:39;;;;;;;12.98;2.90;;;9.10;99.90;;;;;;5032177;28;20225;-76
2022/03/13 03:08:07;;;;;;;8.05;2.00;;;9.10;99.90;;;;;;5066141;28;20025;-76
2022/03/13 03:10:34;;;;;;;6.97;1.63;;;9.10;99.90;;;;;;5065262;28;20048;-75
2022/03/13 03:13:00;;;;;;;6.40;1.85;;;9.00;99.90;;;;;;5065843;28;20032;-76
2022/03/13 03:15:26;;;;;;;7.38;1.65;;;9.00;99.90;;;;;;5064965;28;20033;-75
2022/03/13 03:17:53;;;;;;;5.43;1.60;;;9.00;99.90;;;;;;5065132;28;20017;-76
2022/03/13 03:20:19;;;;;;;8.02;1.50;;;8.90;99.90;;;;;;5064506;28;20047;-75
2022/03/13 03:22:47;;;;;;;7.45;1.60;;;9.00;99.90;;;;;;5065705;28;20017;-75
2022/03/13 03:25:13;;;;;;;6.93;1.70;;;9.00;99.90;;;;;;5064793;28;20075;-75
2022/03/13 03:27:40;;;;;;;5.88;1.95;;;9.00;99.90;;;;;;5066048;28;20048;-76
2022/03/13 03:30:07;;;;;;;8.00;1.63;;;9.00;99.90;;;;;;5064373;28;20201;-75
2022/03/13 03:32:33;;;;;;;8.63;1.50;;;9.00;99.90;;;;;;5065183;28;20089;-75
2022/03/13 03:34:58;;;;;;;7.30;1.67;;;9.00;99.90;;;;;;5064526;28;20029;-77
2022/03/13 03:37:25;;;;;;;11.00;1.73;;;9.10;99.90;;;;;;5073779;28;20018;-76
2022/03/13 03:39:51;;;;;;;10.63;1.80;;;9.10;99.90;;;;;;5045499;28;20081;-77
2022/03/13 03:42:17;;;;;;;15.10;1.60;;;9.20;99.90;;;;;;5044300;28;20037;-76
2022/03/13 03:44:43;;;;;;;12.70;2.28;;;9.20;99.90;;;;;;5045414;28;20025;-76
2022/03/13 03:47:09;;;;;;;10.30;1.95;;;9.20;99.90;;;;;;5044204;28;20030;-75
2022/03/13 03:49:35;;;;;;;13.45;1.98;;;9.10;99.90;;;;;;5044168;28;20040;-75
2022/03/13 03:52:01;;;;;;;13.05;2.28;;;9.20;99.90;;;;;;5043989;28;20081;-75
2022/03/13 03:54:26;;;;;;;11.27;1.85;;;9.10;99.90;;;;;;5043766;28;20247;-75
2022/03/13 03:56:52;;;;;;;12.93;2.17;;;9.20;99.90;;;;;;5044389;28;20021;-76
2022/03/13 03:59:19;;;;;;;12.52;2.05;;;9.20;99.90;;;;;;5043947;28;20051;-76
2022/03/13 04:01:45;;;;;;;11.07;2.08;;;9.20;99.90;;;;;;5044792;28;20047;-77
2022/03/13 04:04:11;;;;;;;14.38;2.30;;;9.20;99.90;;;;;;5045209;28;20026;-76
2022/03/13 04:06:38;;;;;;;11.23;1.85;;;9.20;99.90;;;;;;5043909;28;20025;-75
2022/03/13 04:09:06;;;;;;;15.07;2.90;;;9.20;99.90;;;;;;5043761;28;20317;-75
2022/03/13 04:11:34;;;;;;;16.13;2.25;;;9.20;99.90;;;;;;5043992;28;20097;-77
2022/03/13 04:14:00;;;;;;;15.55;2.40;;;9.10;99.90;;;;;;5063913;28;20025;-76
2022/03/13 04:16:26;;;;;;;14.73;2.50;;;9.20;99.90;;;;;;5063815;28;20021;-76
2022/03/13 04:18:51;;;;;;;12.18;2.55;;;9.10;99.90;;;;;;5064689;28;20071;-76
2022/03/13 04:21:17;;;;;;;22.63;3.03;;;9.10;99.90;;;;;;5080460;28;20212;-75
2022/03/13 04:23:43;;;;;;;15.38;2.60;;;9.10;99.90;;;;;;5064723;28;20078;-76
2022/03/13 04:26:09;;;;;;;23.67;2.65;;;9.10;99.90;;;;;;5065251;28;20300;-76
2022/03/13 04:28:35;;;;;;;21.98;3.88;;;9.00;99.90;;;;;;5080249;28;20029;-75
2022/03/13 04:31:00;;;;;;;17.88;2.67;;;9.00;99.90;;;;;;5062202;28;20136;-75
2022/03/13 04:33:28;;;;;;;23.27;3.10;;;9.00;99.90;;;;;;5064243;28;20043;-76
2022/03/13 04:35:57;;;;;;;17.65;2.88;;;8.90;99.90;;;;;;5079851;28;20304;-75
2022/03/13 04:38:24;;;;;;;16.58;3.20;;;9.00;99.90;;;;;;5059674;28;20021;-76
2022/03/13 04:40:52;;;;;;;26.25;3.03;;;9.00;99.90;;;;;;5059810;28;20070;-75
2022/03/13 04:43:18;;;;;;;26.08;3.35;;;9.00;99.90;;;;;;5059537;28;20029;-75
2022/03/13 04:45:44;;;;;;;20.08;2.97;;;9.00;99.90;;;;;;5059486;28;20041;-76
2022/03/13 04:48:11;;;;;;;20.90;2.80;;;9.00;99.90;;;;;;5044464;28;20056;-74
2022/03/13 04:50:36;;;;;;;20.38;3.28;;;9.00;99.90;;;;;;5042129;28;20033;-76
2022/03/13 04:53:03;;;;;;;20.02;2.50;;;9.00;99.90;;;;;;5043076;28;20044;-75
2022/03/13 04:55:28;;;;;;;17.08;2.78;;;9.00;99.90;;;;;;5059293;28;20182;-75
2022/03/13 04:57:54;;;;;;;20.17;3.15;;;9.00;99.90;;;;;;5044408;28;20041;-75
2022/03/13 05:00:20;;;;;;;16.85;2.53;;;9.00;99.90;;;;;;5042734;28;20025;-75
2022/03/13 05:02:45;;;;;;;21.58;3.50;;;8.90;99.90;;;;;;5043259;28;20083;-75
2022/03/13 05:05:11;;;;;;;22.65;3.38;;;8.80;99.90;;;;;;5043799;28;20088;-76
2022/03/13 05:07:38;;;;;;;23.58;3.03;;;8.80;99.90;;;;;;5043690;28;20025;-75
2022/03/13 05:10:05;;;;;;;17.95;3.17;;;8.80;99.90;;;;;;5042533;28;20186;-74
2022/03/13 05:12:32;;;;;;;25.80;3.17;;;8.80;99.90;;;;;;5059226;28;20083;-75
2022/03/13 05:14:58;;;;;;;26.10;2.92;;;8.80;99.90;;;;;;5042282;28;20101;-75
2022/03/13 05:17:24;;;;;;;21.08;3.45;;;8.80;99.90;;;;;;5042892;28;20213;-77
2022/03/13 05:19:50;;;;;;;29.48;3.20;;;8.80;99.90;;;;;;5042432;28;20029;-76
2022/03/13 05:22:16;;;;;;;19.83;2.85;;;8.80;99.90;;;;;;5043994;28;20022;-76
2022/03/13 05:24:42;;;;;;;22.27;2.92;;;8.80;99.90;;;;;;5043580;28;20018;-75
2022/03/13 05:27:08;;;;;;;21.13;3.15;;;8.70;99.90;;;;;;5042742;28;20025;-75
2022/03/13 05:29:34;;;;;;;18.85;3.05;;;8.70;99.90;;;;;;5042568;28;20028;-75
2022/03/13 05:31:59;;;;;;;17.25;3.33;;;8.70;99.90;;;;;;5024252;28;20025;-76
2022/03/13 05:34:25;;;;;;;20.23;3.20;;;8.70;99.90;;;;;;5025881;28;20251;-76
2022/03/13 05:36:51;;;;;;;22.70;2.70;;;8.70;99.90;;;;;;5043583;28;20048;-76
2022/03/13 05:39:17;;;;;;;22.92;2.67;;;8.70;99.90;;;;;;5043764;28;20062;-75
2022/03/13 05:41:42;;;;;;;30.33;3.72;;;8.70;99.90;;;;;;5043541;28;20234;-76
2022/03/13 05:44:09;;;;;;;21.83;2.78;;;8.70;99.90;;;;;;5058753;28;20059;-75
2022/03/13 05:46:36;;;;;;;30.90;3.17;;;8.70;99.90;;;;;;5042295;28;20028;-75
2022/03/13 05:49:02;;;;;;;27.65;3.13;;;8.70;99.90;;;;;;5042132;28;20053;-74
2022/03/13 05:51:32;;;;;;;32.72;4.03;;;8.70;99.90;;;;;;5041995;28;20045;-74
2022/03/13 05:53:57;;;;;;;25.25;3.63;;;8.80;99.90;;;;;;5059010;28;20299;-75
2022/03/13 05:56:23;;;;;;;34.15;2.97;;;8.70;99.90;;;;;;5043173;28;20032;-75
2022/03/13 05:58:49;;;;;;;28.05;3.42;;;8.70;99.90;;;;;;5025736;28;20029;-74
2022/03/13 06:01:14;;;;;;;26.13;3.55;;;8.70;99.90;;;;;;5044059;28;20032;-76
2022/03/13 06:03:42;;;;;;;22.55;3.60;;;8.70;99.90;;;;;;5046078;28;20304;-75
2022/03/13 06:06:08;;;;;;;32.13;5.22;;;8.70;99.90;;;;;;5029796;28;20374;-75
2022/03/13 06:08:34;;;;;;;49.38;4.88;;;8.60;99.90;;;;;;5046273;28;20013;-75
2022/03/13 06:11:00;;;;;;;32.15;4.30;;;8.60;99.90;;;;;;5045907;28;20139;-74
2022/03/13 06:13:25;;;;;;;29.25;3.80;;;8.60;99.90;;;;;;5044971;28;20025;-74
2022/03/13 06:15:51;;;;;;;32.53;3.22;;;8.60;99.90;;;;;;5049239;28;20025;-75
2022/03/13 06:18:17;;;;;;;32.55;3.90;;;8.50;99.90;;;;;;5065894;28;20028;-75
2022/03/13 06:20:43;;;;;;;21.95;3.15;;;8.60;99.90;;;;;;5065748;28;20028;-75
2022/03/13 06:23:11;;;;;;;19.92;3.78;;;8.60;99.90;;;;;;5049436;28;20043;-75
2022/03/13 06:25:36;;;;;;;27.23;3.58;;;8.70;99.90;;;;;;5049388;28;20052;-74
2022/03/13 06:28:03;;;;;;;22.85;3.05;;;8.70;99.90;;;;;;5066916;28;20029;-75
2022/03/13 06:30:29;;;;;;;27.55;3.80;;;8.70;99.90;;;;;;5065410;28;20220;-76
2022/03/13 06:32:55;;;;;;;19.95;3.40;;;8.60;99.90;;;;;;5064971;28;20091;-75
2022/03/13 06:35:23;;;;;;;20.60;3.15;;;8.70;99.90;;;;;;5032444;28;20032;-75
2022/03/13 06:37:50;;;;;;;20.42;2.90;;;8.70;99.90;;;;;;5074805;28;20021;-75
2022/03/13 06:40:19;;;;;;;21.65;3.78;;;8.60;99.90;;;;;;5065519;28;20021;-75
2022/03/13 06:42:47;;;;;;;61.83;6.38;;;8.60;99.90;;;;;;5066478;28;20021;-75
2022/03/13 06:45:13;;;;;;;42.88;5.72;;;8.70;99.90;;;;;;5048896;28;20021;-76
2022/03/13 06:47:44;;;;;;;26.52;4.15;;;8.70;99.90;;;;;;5048857;28;20129;-75
2022/03/13 06:50:11;;;;;;;47.93;5.80;;;8.70;99.90;;;;;;5065048;28;20025;-75
2022/03/13 06:52:37;;;;;;;63.88;8.38;;;8.70;99.90;;;;;;5065235;28;20044;-75
2022/03/13 06:55:04;;;;;;;38.50;5.30;;;8.70;99.90;;;;;;5066297;28;20016;-76
2022/03/13 06:57:30;;;;;;;47.83;5.32;;;8.80;99.90;;;;;;5064980;28;20031;-76
2022/03/13 06:59:57;;;;;;;57.35;7.47;;;8.80;99.90;;;;;;5066312;28;20052;-76
2022/03/13 07:02:23;;;;;;;47.03;5.65;;;8.80;99.90;;;;;;5064957;28;20216;-76
2022/03/13 07:04:49;;;;;;;40.15;4.80;;;8.80;99.90;;;;;;5066093;28;20025;-75
2022/03/13 07:07:14;;;;;;;37.45;4.50;;;8.90;99.90;;;;;;5064484;28;20044;-75
2022/03/13 07:09:40;;;;;;;28.27;4.22;;;8.90;99.90;;;;;;5048181;28;20029;-75
2022/03/13 07:12:11;;;;;;;29.88;4.43;;;8.90;99.90;;;;;;5061310;28;20029;-75
2022/03/13 07:14:43;;;;;;;24.73;3.75;;;9.00;99.90;;;;;;5044149;28;20021;-75
2022/03/13 07:17:08;;;;;;;34.92;4.78;;;9.10;99.90;;;;;;5044934;28;20216;-75
2022/03/13 07:19:34;;;;;;;31.92;3.58;;;9.20;99.90;;;;;;5045954;28;20081;-76
2022/03/13 07:21:59;;;;;;;44.35;5.50;;;9.20;99.90;;;;;;5044766;28;20216;-75
2022/03/13 07:24:25;;;;;;;39.95;5.03;;;9.10;99.90;;;;;;5046061;28;20017;-74
2022/03/13 07:26:51;;;;;;;28.48;4.45;;;9.10;99.90;;;;;;5044581;28;20022;-75
2022/03/13 07:29:16;;;;;;;30.52;5.07;;;9.10;99.90;;;;;;5045908;28;20024;-75
2022/03/13 07:31:42;;;;;;;40.55;4.10;;;9.10;99.90;;;;;;5060521;28;20037;-75
2022/03/13 07:34:08;;;;;;;38.83;5.53;;;9.10;99.90;;;;;;5042812;28;20021;-75
2022/03/13 07:36:34;;;;;;;36.50;3.80;;;9.20;99.90;;;;;;5046041;28;20178;-75
2022/03/13 07:39:01;;;;;;;36.35;4.90;;;9.20;99.90;;;;;;5048042;28;20029;-74
2022/03/13 07:41:26;;;;;;;33.33;4.13;;;9.20;99.90;;;;;;5064197;28;20017;-74
2022/03/13 07:43:52;;;;;;;36.40;4.10;;;9.30;99.90;;;;;;5064572;28;20033;-74
2022/03/13 07:46:18;;;;;;;27.15;3.10;;;9.40;99.90;;;;;;5080818;28;20066;-74
2022/03/13 07:48:44;;;;;;;32.58;3.08;;;9.50;99.90;;;;;;5047374;28;20125;-76
2022/03/13 07:51:12;;;;;;;37.15;4.00;;;9.50;99.90;;;;;;5047477;28;20037;-75
2022/03/13 07:53:38;;;;;;;41.17;5.07;;;9.60;99.90;;;;;;5047325;28;20025;-75
2022/03/13 07:56:04;;;;;;;35.80;4.88;;;9.80;99.90;;;;;;5047457;28;20021;-75
2022/03/13 07:58:30;;;;;;;32.40;4.28;;;9.90;99.90;;;;;;5064143;28;20024;-75
2022/03/13 08:00:57;;;;;;;36.08;4.60;;;9.90;99.90;;;;;;5047392;28;20025;-76
2022/03/13 08:03:28;;;;;;;42.67;5.25;;;10.00;99.90;;;;;;5047224;28;20021;-76
2022/03/13 08:05:53;;;;;;;32.77;4.90;;;10.00;99.90;;;;;;5063404;28;20025;-75
2022/03/13 08:08:19;;;;;;;34.75;5.43;;;10.00;99.90;;;;;;5063478;28;20102;-75
2022/03/13 08:10:45;;;;;;;31.83;4.28;;;10.10;99.90;;;;;;5063379;28;20028;-75
2022/03/13 08:13:11;;;;;;;29.35;4.25;;;10.10;99.90;;;;;;5051235;28;20052;-76
2022/03/13 08:15:38;;;;;;;47.05;5.50;;;10.20;99.90;;;;;;5044967;28;20047;-75
2022/03/13 08:18:04;;;;;;;22.85;4.60;;;10.20;99.90;;;;;;5043756;28;20044;-76
2022/03/13 08:20:29;;;;;;;38.10;4.22;;;10.20;99.90;;;;;;5044690;28;20071;-75
2022/03/13 08:22:55;;;;;;;34.47;3.50;;;10.30;99.90;;;;;;5060374;28;20190;-76
2022/03/13 08:25:21;;;;;;;28.58;3.53;;;10.40;99.90;;;;;;5042507;28;20028;-75
2022/03/13 08:27:48;;;;;;;30.98;3.80;;;10.40;99.90;;;;;;5060092;28;20024;-75
2022/03/13 08:30:14;;;;;;;30.60;3.75;;;10.50;99.90;;;;;;5043319;28;20375;-75
2022/03/13 08:32:40;;;;;;;47.70;6.00;;;10.60;99.90;;;;;;5042867;28;20021;-76
2022/03/13 08:35:07;;;;;;;55.42;5.88;;;10.70;99.90;;;;;;5042916;28;20029;-76
2022/03/13 08:37:34;;;;;;;45.50;6.07;;;10.70;99.90;;;;;;5051583;28;20025;-75
2022/03/13 08:39:59;;;;;;;27.95;3.25;;;10.80;99.90;;;;;;5063271;28;20315;-76
2022/03/13 08:42:25;;;;;;;35.35;5.93;;;10.80;99.90;;;;;;5063419;28;20070;-74
2022/03/13 08:44:51;;;;;;;64.40;6.32;;;10.90;99.90;;;;;;5064346;28;20040;-76
2022/03/13 08:47:17;;;;;;;33.67;4.90;;;10.90;99.90;;;;;;5062821;28;20295;-75
2022/03/13 08:49:43;;;;;;;62.90;6.38;;;10.90;99.90;;;;;;5046317;28;20048;-75
2022/03/13 08:52:09;;;;;;;30.25;4.32;;;10.90;99.90;;;;;;5030014;28;20025;-75
2022/03/13 08:54:35;;;;;;;29.88;3.92;;;11.00;99.90;;;;;;5063128;28;20056;-75
2022/03/13 08:57:02;;;;;;;27.25;3.92;;;11.20;99.90;;;;;;5062580;28;20021;-74
2022/03/13 08:59:28;;;;;;;29.08;4.47;;;11.20;99.90;;;;;;5062917;28;20028;-74
2022/03/13 09:01:53;;;;;;;32.65;4.25;;;11.20;99.90;;;;;;5063500;28;20303;-75
2022/03/13 09:04:20;;;;;;;26.70;3.33;;;11.40;99.90;;;;;;5063941;28;20075;-76
2022/03/13 09:06:46;;;;;;;21.50;3.53;;;11.30;99.90;;;;;;5063858;28;20071;-76
2022/03/13 09:09:12;;;;;;;28.00;3.40;;;11.20;99.90;;;;;;5063779;28;20027;-73
2022/03/13 09:11:38;;;;;;;24.15;3.88;;;11.40;99.90;;;;;;5063008;28;20032;-75
2022/03/13 09:14:05;;;;;;;25.73;4.30;;;11.40;99.90;;;;;;5043859;28;20021;-75
2022/03/13 09:16:32;;;;;;;20.92;3.58;;;11.30;99.90;;;;;;5059295;28;20080;-75
2022/03/13 09:18:59;;;;;;;29.38;3.25;;;11.40;99.90;;;;;;5058983;28;20029;-76
2022/03/13 09:21:25;;;;;;;25.63;3.60;;;11.40;99.90;;;;;;5042630;28;20308;-76
2022/03/13 09:23:50;;;;;;;25.80;3.17;;;11.40;99.90;;;;;;5042690;28;20052;-76
2022/03/13 09:26:16;;;;;;;28.15;3.35;;;11.50;99.90;;;;;;5043896;28;20068;-75
2022/03/13 09:28:42;;;;;;;21.00;3.33;;;11.60;99.90;;;;;;5043428;28;20033;-74
2022/03/13 09:31:08;;;;;;;18.60;3.30;;;11.70;99.90;;;;;;5042940;28;20098;-75
2022/03/13 09:33:34;;;;;;;28.48;3.53;;;11.80;99.90;;;;;;5058885;28;20024;-76
2022/03/13 09:36:00;;;;;;;30.92;3.78;;;11.90;99.90;;;;;;5040993;28;20045;-75
2022/03/13 09:38:25;;;;;;;24.27;3.13;;;12.00;99.80;;;;;;5059245;28;20074;-75
2022/03/13 09:40:51;;;;;;;27.38;3.50;;;12.00;99.90;;;;;;5063532;28;20212;-74
2022/03/13 09:43:19;;;;;;;18.60;3.53;;;12.00;99.90;;;;;;5063431;28;20269;-75
2022/03/13 09:45:46;;;;;;;22.50;3.42;;;11.90;99.90;;;;;;5062539;28;20021;-76
2022/03/13 09:48:15;;;;;;;19.85;2.90;;;11.80;99.60;;;;;;5063206;28;20069;-75
2022/03/13 09:50:42;;;;;;;21.02;3.67;;;11.80;99.90;;;;;;5062235;28;20063;-75
2022/03/13 09:53:08;;;;;;;20.65;3.60;;;11.80;99.90;;;;;;5061905;28;20052;-75
2022/03/13 09:55:34;;;;;;;24.33;3.35;;;11.80;99.90;;;;;;5062323;28;20025;-74
2022/03/13 09:58:00;;;;;;;26.08;3.72;;;11.90;99.60;;;;;;5063329;28;20025;-75
2022/03/13 10:00:26;;;;;;;29.45;3.05;;;11.90;99.60;;;;;;5045603;28;20025;-75
2022/03/13 10:02:53;;;;;;;27.15;3.30;;;11.90;99.40;;;;;;5061316;28;20257;-75
2022/03/13 10:05:20;;;;;;;23.60;3.13;;;12.00;99.30;;;;;;5063440;28;20323;-76
2022/03/13 10:08:01;;;;;;;21.92;3.40;;;12.20;99.30;;;;;;5062036;28;20035;-75
2022/03/13 10:10:30;;;;;;;26.90;3.83;;;12.30;99.40;;;;;;5062041;28;20021;-75
2022/03/13 10:12:56;;;;;;;20.83;4.15;;;12.30;98.70;;;;;;5034279;28;20025;-75
2022/03/13 10:15:22;;;;;;;18.98;2.85;;;12.20;98.60;;;;;;5041709;28;20263;-75
2022/03/13 10:17:48;;;;;;;19.00;2.97;;;12.20;98.60;;;;;;5041765;28;20220;-75
2022/03/13 10:20:24;;;;;;;16.02;2.70;;;12.20;98.90;;;;;;5058438;28;20067;-75
2022/03/13 10:23:11;;;;;;;20.52;3.60;;;12.20;98.50;;;;;;5041977;28;20118;-74
2022/03/13 10:25:39;;;;;;;17.00;2.80;;;12.20;98.30;;;;;;5056644;28;20216;-74
2022/03/13 10:28:18;;;;;;;26.10;3.50;;;12.30;98.10;;;;;;5043129;28;20076;-75
2022/03/13 10:30:48;;;;;;;19.55;2.45;;;12.40;98.00;;;;;;5042567;28;20352;-75
2022/03/13 10:33:13;;;;;;;22.67;2.60;;;12.40;97.50;;;;;;5040993;28;20067;-74
2022/03/13 10:35:40;;;;;;;16.55;3.13;;;12.40;97.70;;;;;;5041752;28;20025;-75
2022/03/13 10:38:15;;;;;;;20.40;3.08;;;12.60;98.40;;;;;;5071750;28;20032;-75
2022/03/13 10:40:41;;;;;;;21.15;2.97;;;12.80;97.60;;;;;;5028864;28;20025;-75
2022/03/13 10:43:07;;;;;;;15.52;2.17;;;12.90;97.00;;;;;;5062653;28;20020;-74
2022/03/13 10:45:37;;;;;;;20.88;2.83;;;13.00;96.70;;;;;;5061851;28;20028;-74
2022/03/13 10:48:28;;;;;;;14.63;2.88;;;12.70;96.80;;;;;;5061992;28;20279;-74
2022/03/13 10:50:57;;;;;;;16.40;2.33;;;12.80;97.30;;;;;;5017721;28;20058;-75
2022/03/13 10:53:24;;;;;;;17.20;3.10;;;12.70;96.40;;;;;;5066805;28;20033;-74
2022/03/13 10:56:11;;;;;;;18.35;2.13;;;12.70;96.50;;;;;;5048861;28;20024;-76
2022/03/13 10:58:45;;;;;;;20.92;2.92;;;12.60;96.80;;;;;;5051729;28;20088;-75
2022/03/13 11:01:16;;;;;;;22.10;3.45;;;12.60;97.10;;;;;;5064843;28;20017;-73
2022/03/13 11:04:02;;;;;;;16.38;2.70;;;12.70;97.30;;;;;;5066042;28;20016;-73
2022/03/13 11:06:28;;;;;;;16.60;2.97;;;12.60;96.90;;;;;;5065241;28;20095;-75
2022/03/13 11:08:55;;;;;;;17.25;2.65;;;12.90;97.30;;;;;;5064914;28;20063;-75
2022/03/13 11:11:28;;;;;;;16.02;2.50;;;13.10;96.80;;;;;;5064864;28;20032;-76
2022/03/13 11:13:57;;;;;;;25.55;2.72;;;13.20;96.30;;;;;;5029007;28;20025;-74
2022/03/13 11:16:25;;;;;;;19.58;2.88;;;13.40;96.10;;;;;;5061606;28;20017;-76
2022/03/13 11:18:53;;;;;;;16.58;2.80;;;13.30;96.50;;;;;;5044834;28;20017;-75
2022/03/13 11:21:20;;;;;;;14.70;2.63;;;13.10;96.20;;;;;;5061363;28;20290;-76
2022/03/13 11:23:46;;;;;;;19.52;2.58;;;13.10;96.80;;;;;;5061598;28;20018;-75
2022/03/13 11:26:15;;;;;;;19.20;2.15;;;13.30;96.00;;;;;;5044650;28;20029;-77
2022/03/13 11:28:44;;;;;;;21.05;3.08;;;13.30;96.10;;;;;;5061234;28;20013;-76
2022/03/13 11:31:29;;;;;;;15.40;2.78;;;13.20;95.80;;;;;;5045200;28;20041;-75
2022/03/13 11:34:16;;;;;;;19.58;2.88;;;13.30;95.70;;;;;;5045623;28;20018;-75
2022/03/13 11:36:50;;;;;;;16.23;2.35;;;13.40;95.90;;;;;;5058623;28;20025;-76
2022/03/13 11:39:31;;;;;;;13.48;2.00;;;13.50;95.70;;;;;;5064598;28;20040;-73
2022/03/13 11:41:57;;;;;;;15.30;2.17;;;13.40;95.00;;;;;;5065547;28;20181;-74
2022/03/13 11:44:38;;;;;;;14.95;2.28;;;13.20;95.30;;;;;;5065797;28;20036;-76
2022/03/13 11:47:20;;;;;;;18.35;2.53;;;13.20;95.40;;;;;;5065172;28;20020;-75
2022/03/13 11:49:46;;;;;;;19.65;2.72;;;13.30;95.20;;;;;;5064428;28;20328;-75
2022/03/13 11:52:32;;;;;;;21.35;2.90;;;13.30;95.20;;;;;;5065155;28;20029;-75
2022/03/13 11:55:00;;;;;;;17.98;2.58;;;13.30;94.90;;;;;;5050214;28;20324;-75
2022/03/13 11:57:39;;;;;;;10.70;1.80;;;13.40;94.50;;;;;;5065560;28;20029;-76
2022/03/13 12:00:28;;;;;;;11.23;2.15;;;13.50;94.70;;;;;;5064015;28;20028;-75
2022/03/13 12:03:06;;;;;;;15.57;2.30;;;13.60;94.10;;;;;;5063562;28;20028;-74
2022/03/13 12:05:32;;;;;;;16.20;2.38;;;13.70;94.00;;;;;;5064238;28;20021;-75
2022/03/13 12:08:05;;;;;;;16.52;2.05;;;13.80;94.50;;;;;;5047102;28;20331;-74
2022/03/13 12:10:37;;;;;;;18.15;2.70;;;13.90;94.40;;;;;;5063732;28;20312;-77
2022/03/13 12:13:05;;;;;;;18.30;2.28;;;13.90;93.70;;;;;;5050852;28;20036;-73
2022/03/13 12:15:31;;;;;;;12.90;2.00;;;13.90;93.40;;;;;;5043927;28;20017;-75
2022/03/13 12:17:57;;;;;;;14.57;2.08;;;13.90;93.30;;;;;;5043685;28;20021;-75
2022/03/13 12:20:26;;;;;;;10.70;2.38;;;13.90;93.50;;;;;;5060128;28;20021;-75
2022/03/13 12:22:56;;;;;;;15.13;2.08;;;14.00;93.40;;;;;;5043526;28;20100;-75
2022/03/13 12:25:27;;;;;;;16.63;2.38;;;14.00;93.30;;;;;;5060082;28;20021;-74
2022/03/13 12:27:53;;;;;;;17.33;2.60;;;13.90;93.60;;;;;;5060184;28;20029;-75
2022/03/13 12:30:28;;;;;;;14.60;2.20;;;14.00;93.30;;;;;;5059934;28;20371;-76
2022/03/13 12:32:58;;;;;;;18.92;3.72;;;13.90;93.40;;;;;;5059124;28;20029;-75
2022/03/13 12:35:25;;;;;;;20.53;2.77;;;13.80;93.50;;;;;;5043539;28;20017;-75
2022/03/13 12:37:54;;;;;;;11.02;1.83;;;13.60;93.60;;;;;;5069385;28;20048;-75
2022/03/13 12:40:23;;;;;;;11.27;2.35;;;13.50;93.50;;;;;;5064509;28;20025;-74
2022/03/13 12:42:59;;;;;;;21.75;3.50;;;13.60;94.10;;;;;;5063918;28;20021;-75
2022/03/13 12:45:26;;;;;;;14.30;2.38;;;13.90;93.90;;;;;;5064266;28;20304;-76
2022/03/13 12:47:54;;;;;;;13.95;2.33;;;13.90;93.70;;;;;;5063006;28;20071;-76